Szekesfehervar, Hungary
Current Conditions -  °F | °C
As of 8:00 AM on Tuesday 21 Oct 2014 (Local Time) from LHBP Reporting Station
Light Rain Light Rain  
Wind Chill: 57°   Ceiling: 6700
Heat Index: 57°   Visibility: 4mi
Dew Point: 57°   Wind: 0mph
Humidity: 100%   Direction: NA
Pressure: 29.91"   Gusts: NA
Location:  47.2°N, 18.41°E
Report Text: LHBP 210600Z 00000KT 6000 -RA SCT004 SCT017 OVC067 14/14 Q1013 NOSIG
Loading
Personal Weather Stations






























Interactive Weather Map
Tropical Storm Tracking
New forecast layout! Learn more

10-Day Weather Forecast

Advertisements
Track Severe Weather on mobile